首页
METAR-TAF:

METAR-TAF

机场 :

Jimmy Lake, 薩斯喀徹溫, 加拿大

纬度: 54-55N, 经度: 109-57W, 海拔: 658米

当前天气观测

该预报发布于1小时和17分钟前的16:00 UTC
风速10节,风向西,有时为24节阵风,在西转西南西北之间变化
温度 12°C
湿度 71%
气压 1003 hPa
能見度: 14.5公里
阴天层高于1500英尺
阴天层高于7600英尺
阴天层高于8900英尺

METAR: CWHN 011600Z AUTO 27010G24KT 250V320 9SM OVC015 OVC076 OVC089 12/07 A2962 RMK SLP041

时间: 11:17 (17:17 UTC)


TAF: 丢失

超过4000个机场的气象观测和天气预报(METAR&TAF报告)。

可查询的气象台以黄色和红色小点在地图上表示。

将鼠标移到小点上方,可查看气象台名称。

然后点击查看天气观测和预报。

如需切换地图:点击带黑十字的绿色按钮放大地图;点击带横线的绿色按钮缩小地图;或者点击绿色箭头查看邻近地区的地图。


METAR-TAF: